createdAt,value
2019-05-11T00:01:04.874Z,96462.05
2019-05-11T00:03:36.557Z,96465.25
2019-05-11T00:06:07.591Z,96468.92
2019-05-11T00:08:38.937Z,96461.80
2019-05-11T00:11:09.886Z,96454.34
2019-05-11T00:13:40.871Z,96457.77
2019-05-11T00:16:12.146Z,96453.78
2019-05-11T00:18:43.788Z,96450.41
2019-05-11T00:21:14.504Z,96445.25
2019-05-11T00:23:45.792Z,96438.48
2019-05-11T00:26:17.536Z,96438.14
2019-05-11T00:28:48.854Z,96437.00
2019-05-11T00:31:20.251Z,96434.23
2019-05-11T00:33:51.516Z,96426.71
2019-05-11T01:03:03.524Z,96411.67
2019-05-11T01:05:34.940Z,96406.34
2019-05-11T01:08:06.344Z,96404.41
2019-05-11T01:10:42.180Z,96418.41
2019-05-11T01:13:11.375Z,96419.20
2019-05-11T01:15:42.358Z,96416.31
2019-05-11T01:18:13.670Z,96412.84
2019-05-11T01:20:44.733Z,96414.00
2019-05-11T01:23:17.411Z,96398.84
2019-05-11T01:25:48.437Z,96398.45
2019-05-11T01:28:20.400Z,96399.19
2019-05-11T01:30:51.402Z,96390.29
2019-05-11T01:33:23.099Z,96388.80
2019-05-11T01:35:53.992Z,96382.69
2019-05-11T01:38:25.716Z,96372.44
2019-05-11T01:40:59.062Z,96371.31
2019-05-11T01:43:30.886Z,96370.91
2019-05-11T01:46:02.183Z,96383.11
2019-05-11T01:48:33.541Z,96398.30
2019-05-11T01:51:04.659Z,96419.67
2019-05-11T01:53:35.286Z,96406.02
2019-05-11T01:56:06.276Z,96400.79
2019-05-11T01:58:37.937Z,96387.73
2019-05-11T02:01:09.265Z,96391.36
2019-05-11T02:03:41.349Z,96389.69
2019-05-11T02:06:12.844Z,96391.16
2019-05-11T02:08:44.128Z,96399.36
2019-05-11T02:11:16.417Z,96410.98
2019-05-11T02:13:48.108Z,96414.34
2019-05-11T02:16:18.816Z,96424.80
2019-05-11T02:18:50.244Z,96432.62
2019-05-11T02:21:21.500Z,96443.83
2019-05-11T02:23:53.019Z,96440.37
2019-05-11T02:26:24.303Z,96434.96
2019-05-11T02:28:55.751Z,96435.80
2019-05-11T02:31:26.952Z,96442.30
2019-05-11T02:33:58.533Z,96430.81
2019-05-11T02:36:28.854Z,96423.80
2019-05-11T02:39:00.855Z,96418.16
2019-05-11T02:41:36.946Z,96412.19
2019-05-11T02:44:05.083Z,96416.36
2019-05-11T02:46:36.512Z,96414.67
2019-05-11T02:49:07.866Z,96415.67
2019-05-11T02:51:40.244Z,96406.35
2019-05-11T02:54:12.537Z,96405.29
2019-05-11T02:56:43.849Z,96398.27
2019-05-11T02:59:15.468Z,96398.75
2019-05-11T03:01:46.444Z,96396.67
2019-05-11T03:04:17.789Z,96400.63
2019-05-11T03:06:49.837Z,96406.27
2019-05-11T03:09:21.829Z,96406.80
2019-05-11T03:11:56.121Z,96397.61
2019-05-11T03:14:25.516Z,96390.38
2019-05-11T03:17:15.841Z,96377.88
2019-05-11T03:19:47.493Z,96361.89
2019-05-11T03:22:18.881Z,96353.06
2019-05-11T03:24:50.885Z,96362.53
2019-05-11T03:27:22.456Z,96362.53
2019-05-11T03:29:53.876Z,96373.73
2019-05-11T03:32:25.160Z,96370.17
2019-05-11T03:34:56.517Z,96369.20
2019-05-11T03:37:27.748Z,96367.97
2019-05-11T03:39:59.435Z,96374.11
2019-05-11T03:42:30.129Z,96407.44
2019-05-11T03:45:01.879Z,96418.84
2019-05-11T03:47:33.827Z,96413.04
2019-05-11T03:50:04.880Z,96408.19
2019-05-11T03:52:36.198Z,96404.23
2019-05-11T03:55:07.509Z,96391.48
2019-05-11T03:57:38.958Z,96382.47
2019-05-11T04:00:10.660Z,96367.72
2019-05-11T04:02:41.630Z,96344.59
2019-05-11T04:05:13.306Z,96362.20
2019-05-11T04:07:44.937Z,96357.99
2019-05-11T04:10:16.242Z,96366.33
2019-05-11T04:12:47.639Z,96363.63
2019-05-11T04:15:18.658Z,96356.07
2019-05-11T04:17:49.952Z,96361.51
2019-05-11T04:20:21.474Z,96364.33
2019-05-11T04:22:53.027Z,96360.31
2019-05-11T04:25:24.195Z,96364.48
2019-05-11T04:27:55.457Z,96363.59
2019-05-11T04:30:27.154Z,96383.33
2019-05-11T04:32:58.438Z,96398.16
2019-05-11T04:35:30.133Z,96393.55
2019-05-11T04:38:01.639Z,96402.17
2019-05-11T04:40:32.725Z,96398.30
2019-05-11T04:43:04.269Z,96406.02
2019-05-11T04:45:35.598Z,96400.21
2019-05-11T04:48:07.533Z,96428.09
2019-05-11T04:50:38.490Z,96406.22
2019-05-11T04:53:09.770Z,96409.37
2019-05-11T04:55:40.759Z,96414.11
2019-05-11T04:58:11.758Z,96420.41
2019-05-11T05:00:43.850Z,96417.99
2019-05-11T05:03:15.526Z,96419.27
2019-05-11T05:05:47.478Z,96430.22
2019-05-11T05:08:21.191Z,96415.91
2019-05-11T05:10:58.317Z,96408.08
2019-05-11T05:13:29.562Z,96396.03
2019-05-11T05:15:57.783Z,96406.51
2019-05-11T05:18:29.756Z,96406.52
2019-05-11T05:21:01.089Z,96405.66
2019-05-11T05:23:32.452Z,96410.53
2019-05-11T05:26:04.219Z,96408.05
2019-05-11T05:28:36.319Z,96408.05
2019-05-11T05:31:07.268Z,96407.25
2019-05-11T05:33:38.684Z,96408.16
2019-05-11T05:36:09.797Z,96413.77
2019-05-11T05:38:41.671Z,96419.58
2019-05-11T05:41:13.527Z,96405.91
2019-05-11T05:43:44.953Z,96413.47
2019-05-11T05:46:16.017Z,96421.61
2019-05-11T05:48:47.324Z,96414.89
2019-05-11T05:51:18.610Z,96423.84
2019-05-11T05:53:49.656Z,96409.39
2019-05-11T05:56:21.618Z,96410.46
2019-05-11T05:58:53.613Z,96423.31
2019-05-11T06:01:24.926Z,96411.30
2019-05-11T06:03:56.269Z,96418.28
2019-05-11T06:06:28.321Z,96421.14
2019-05-11T06:08:59.382Z,96425.27
2019-05-11T06:11:30.801Z,96424.22
2019-05-11T06:14:02.161Z,96429.30
2019-05-11T06:16:33.022Z,96436.27
2019-05-11T06:19:04.260Z,96449.23
2019-05-11T06:21:35.511Z,96441.61
2019-05-11T06:24:07.771Z,96434.16
2019-05-11T06:26:39.097Z,96427.94
2019-05-11T06:29:10.610Z,96427.46
2019-05-11T06:31:41.391Z,96434.24
2019-05-11T06:34:12.610Z,96436.39
2019-05-11T06:36:44.855Z,96437.93
2019-05-11T06:39:16.133Z,96439.56
2019-05-11T06:41:47.628Z,96441.58
2019-05-11T06:44:19.678Z,96439.86
2019-05-11T06:46:51.728Z,96438.88
2019-05-11T06:49:22.947Z,96438.88
2019-05-11T06:51:54.275Z,96435.94
2019-05-11T06:54:25.977Z,96436.59
2019-05-11T06:56:57.307Z,96432.23
2019-05-11T06:59:28.923Z,96437.27
2019-05-11T07:01:59.972Z,96437.23
2019-05-11T07:04:31.170Z,96433.73
2019-05-11T07:07:03.170Z,96437.57
2019-05-11T07:09:34.594Z,96443.63
2019-05-11T07:12:05.749Z,96439.05
2019-05-11T07:14:37.541Z,96440.48
2019-05-11T07:17:08.809Z,96450.66
2019-05-11T07:19:40.822Z,96457.25
2019-05-11T07:22:12.509Z,96458.55
2019-05-11T07:24:44.442Z,96452.71
2019-05-11T07:27:15.772Z,96452.64
2019-05-11T07:29:47.154Z,96444.13
2019-05-11T07:32:25.476Z,96441.54
2019-05-11T07:34:51.565Z,96443.38
2019-05-11T07:37:24.362Z,96445.88
2019-05-11T07:39:57.866Z,96447.67
2019-05-11T07:42:28.746Z,96439.53
2019-05-11T07:45:00.352Z,96439.22
2019-05-11T07:47:31.687Z,96455.79
2019-05-11T07:50:02.969Z,96443.27
2019-05-11T07:52:33.578Z,96458.72
2019-05-11T07:55:04.591Z,96456.86
2019-05-11T07:57:38.741Z,96463.33
2019-05-11T08:00:09.466Z,96464.02
2019-05-11T08:02:39.910Z,96476.12
2019-05-11T08:05:10.817Z,96481.16
2019-05-11T08:07:42.830Z,96484.89
2019-05-11T08:10:14.158Z,96485.11
2019-05-11T08:12:48.019Z,96481.45
2019-05-11T08:15:18.716Z,96481.56
2019-05-11T08:17:50.009Z,96482.38
2019-05-11T08:20:21.252Z,96480.05
2019-05-11T08:22:52.973Z,96478.63
2019-05-11T08:25:23.907Z,96481.63
2019-05-11T08:27:55.266Z,96476.75
2019-05-11T08:30:27.835Z,96474.41
2019-05-11T08:32:59.579Z,96475.47
2019-05-11T08:35:31.528Z,96471.22
2019-05-11T08:38:03.147Z,96472.53
2019-05-11T08:40:34.401Z,96464.30
2019-05-11T08:43:05.469Z,96456.98
2019-05-11T08:45:42.117Z,96461.24
2019-05-11T08:48:13.379Z,96460.39
2019-05-11T08:50:45.102Z,96465.66
2019-05-11T08:53:17.846Z,96474.79
2019-05-11T08:55:49.937Z,96481.66
2019-05-11T08:58:21.720Z,96476.98
2019-05-11T09:00:53.281Z,96463.05
2019-05-11T09:03:25.103Z,96468.45
2019-05-11T09:05:57.915Z,96476.12
2019-05-11T09:08:30.069Z,96466.55
2019-05-11T09:11:02.154Z,96474.28
2019-05-11T09:13:33.618Z,96469.48
2019-05-11T09:16:04.614Z,96471.13
2019-05-11T09:18:38.410Z,96467.13
2019-05-11T09:21:09.777Z,96466.45
2019-05-11T09:23:41.791Z,96460.94
2019-05-11T09:26:13.190Z,96458.36
2019-05-11T09:28:44.559Z,96465.37
2019-05-11T09:31:18.639Z,96463.81
2019-05-11T09:33:49.404Z,96458.81
2019-05-11T09:36:21.154Z,96466.62
2019-05-11T09:38:52.616Z,96468.25
2019-05-11T09:41:23.905Z,96467.80
2019-05-11T09:43:55.492Z,96468.18
2019-05-11T09:46:31.430Z,96473.73
2019-05-11T09:49:02.801Z,96471.45
2019-05-11T09:51:34.581Z,96469.00
2019-05-11T09:54:07.776Z,96446.34
2019-05-11T09:56:38.971Z,96457.72
2019-05-11T09:59:09.876Z,96463.97
2019-05-11T10:01:42.361Z,96488.88
2019-05-11T10:04:13.612Z,96491.53
2019-05-11T10:06:44.580Z,96509.55
2019-05-11T10:09:18.474Z,96509.08
2019-05-11T10:11:49.433Z,96516.07
2019-05-11T10:14:20.816Z,96513.77
2019-05-11T10:16:52.447Z,96530.45
2019-05-11T10:19:23.914Z,96545.26
2019-05-11T10:21:57.855Z,96529.33
2019-05-11T10:24:28.548Z,96502.33
2019-05-11T10:26:59.929Z,96511.02
2019-05-11T10:29:33.900Z,96526.09
2019-05-11T10:32:05.039Z,96509.06
2019-05-11T10:34:38.647Z,96509.61
2019-05-11T10:37:09.499Z,96511.06
2019-05-11T10:39:41.278Z,96505.29
2019-05-11T10:42:12.608Z,96515.64
2019-05-11T10:44:43.946Z,96519.16
2019-05-11T10:47:14.966Z,96521.64
2019-05-11T10:49:48.484Z,96521.06
2019-05-11T10:52:19.928Z,96518.91
2019-05-11T10:54:51.928Z,96516.45
2019-05-11T10:57:23.511Z,96509.29
2019-05-11T10:59:55.080Z,96511.70
2019-05-11T11:02:27.864Z,96504.63
2019-05-11T11:05:01.337Z,96512.41
2019-05-11T11:07:32.591Z,96511.02
2019-05-11T11:10:03.982Z,96505.51
2019-05-11T11:12:34.595Z,96501.86
2019-05-11T11:15:07.828Z,96500.02
2019-05-11T11:17:38.802Z,96501.11
2019-05-11T11:20:10.440Z,96500.45
2019-05-11T11:22:44.257Z,96496.92
2019-05-11T11:25:17.779Z,96489.77
2019-05-11T11:27:48.986Z,96488.03
2019-05-11T11:30:20.879Z,96482.66
2019-05-11T11:32:51.824Z,96484.84
2019-05-11T11:35:22.791Z,96498.05
2019-05-11T11:37:54.482Z,96504.81
2019-05-11T11:40:25.155Z,96510.50
2019-05-11T11:42:58.104Z,96511.07
2019-05-11T11:45:29.815Z,96500.58
2019-05-11T11:48:01.780Z,96503.11
2019-05-11T11:50:32.813Z,96508.15
2019-05-11T11:53:04.057Z,96520.08
2019-05-11T11:55:35.094Z,96507.80
2019-05-11T11:58:08.117Z,96500.52
2019-05-11T12:00:39.291Z,96489.88
2019-05-11T12:03:10.274Z,96489.00
2019-05-11T12:05:41.623Z,96489.28
2019-05-11T12:08:12.502Z,96506.69
2019-05-11T12:10:44.204Z,96518.21
2019-05-11T12:13:15.867Z,96510.65
2019-05-11T12:15:48.257Z,96516.19
2019-05-11T12:18:19.077Z,96520.17
2019-05-11T12:20:50.007Z,96514.44
2019-05-11T12:23:21.712Z,96519.80
2019-05-11T12:25:53.298Z,96521.04
2019-05-11T12:28:24.958Z,96518.44
2019-05-11T12:30:58.566Z,96497.52
2019-05-11T12:33:29.759Z,96500.50
2019-05-11T12:36:01.695Z,96502.91
2019-05-11T12:38:33.331Z,96500.64
2019-05-11T12:41:04.176Z,96492.57
2019-05-11T12:43:35.529Z,96495.36
2019-05-11T12:46:08.055Z,96501.44
2019-05-11T12:48:39.094Z,96500.16
2019-05-11T12:51:10.100Z,96500.48
2019-05-11T12:53:41.750Z,96518.20
2019-05-11T12:56:13.406Z,96524.88
2019-05-11T12:58:44.070Z,96524.16
2019-05-11T13:01:17.972Z,96533.70
2019-05-11T13:03:49.412Z,96525.30
2019-05-11T13:06:20.789Z,96528.38
2019-05-11T13:08:52.709Z,96531.02
2019-05-11T13:11:24.023Z,96521.42
2019-05-11T13:13:55.639Z,96520.98
2019-05-11T13:16:28.828Z,96513.30
2019-05-11T13:19:00.346Z,96518.10
2019-05-11T13:21:31.818Z,96527.33
2019-05-11T13:24:03.324Z,96526.48
2019-05-11T13:26:34.996Z,96522.61
2019-05-11T13:29:07.786Z,96521.35
2019-05-11T13:32:04.488Z,96521.69
2019-05-11T13:34:35.459Z,96512.95
2019-05-11T13:37:08.135Z,96522.69
2019-05-11T13:39:39.813Z,96521.30
2019-05-11T13:42:11.237Z,96525.72
2019-05-11T13:44:43.411Z,96525.28
2019-05-11T13:47:17.518Z,96520.75
2019-05-11T13:49:48.981Z,96534.92
2019-05-11T13:52:20.237Z,96526.46
2019-05-11T13:54:51.562Z,96520.32
2019-05-11T13:57:23.017Z,96494.41
2019-05-11T13:59:54.729Z,96501.87
2019-05-11T14:02:28.422Z,96509.20
2019-05-11T14:04:58.903Z,96518.52
2019-05-11T14:07:30.711Z,96528.29
2019-05-11T14:10:02.522Z,96555.91
2019-05-11T14:12:33.848Z,96588.33
2019-05-11T14:15:08.495Z,96678.00
2019-05-11T14:17:40.226Z,96679.04
2019-05-11T14:20:12.106Z,96655.39
2019-05-11T14:22:42.735Z,96636.94
2019-05-11T14:25:14.200Z,96626.77
2019-05-11T14:27:47.323Z,96623.06
2019-05-11T14:30:19.418Z,96627.83
2019-05-11T14:32:50.807Z,96650.27
2019-05-11T14:35:22.155Z,96660.49
2019-05-11T14:37:53.387Z,96659.84
2019-05-11T14:40:28.925Z,96662.37
2019-05-11T14:43:00.281Z,96660.83
2019-05-11T14:45:31.995Z,96672.30
2019-05-11T14:48:02.930Z,96669.78
2019-05-11T14:50:33.621Z,96666.05
2019-05-11T14:53:04.258Z,96665.05
2019-05-11T14:55:37.927Z,96675.11
2019-05-11T14:58:08.510Z,96674.46
2019-05-11T15:00:39.471Z,96677.64
2019-05-11T15:03:11.320Z,96679.75
2019-05-11T15:05:42.302Z,96683.59
2019-05-11T15:08:13.357Z,96702.00
2019-05-11T15:10:44.327Z,96701.91
2019-05-11T15:13:15.030Z,96694.11
2019-05-11T15:15:45.975Z,96694.73
2019-05-11T15:18:17.806Z,96711.29
2019-05-11T15:20:49.521Z,96716.27
2019-05-11T15:23:21.135Z,96740.54
2019-05-11T15:25:52.168Z,96752.44
2019-05-11T15:28:23.682Z,96750.27
2019-05-11T15:30:55.186Z,96758.10
2019-05-11T15:33:27.822Z,96744.19
2019-05-11T15:35:59.652Z,96748.94
2019-05-11T15:38:31.361Z,96752.23
2019-05-11T15:41:03.113Z,96750.77
2019-05-11T15:43:34.389Z,96751.12
2019-05-11T15:46:05.772Z,96748.19
2019-05-11T15:48:53.445Z,96747.53
2019-05-11T15:51:10.900Z,96750.12
2019-05-11T15:53:42.968Z,96757.33
2019-05-11T15:56:14.021Z,96744.11
2019-05-11T15:58:48.355Z,96760.06
2019-05-11T16:01:19.214Z,96757.99
2019-05-11T16:03:51.280Z,96750.72
2019-05-11T16:06:21.885Z,96774.70
2019-05-11T16:08:53.499Z,96765.68
2019-05-11T16:11:25.144Z,96767.66
2019-05-11T16:13:58.665Z,96771.28
2019-05-11T16:16:29.641Z,96763.86
2019-05-11T16:19:11.636Z,96779.08
2019-05-11T16:21:34.649Z,96793.53
2019-05-11T16:24:07.998Z,96792.75
2019-05-11T16:26:39.603Z,96802.51
2019-05-11T16:29:11.594Z,96789.91
2019-05-11T16:31:42.779Z,96803.45
2019-05-11T16:34:14.436Z,96806.17
2019-05-11T16:36:48.014Z,96811.10
2019-05-11T16:39:19.506Z,96803.31
2019-05-11T16:41:50.859Z,96799.84
2019-05-11T16:44:22.139Z,96805.98
2019-05-11T16:46:53.250Z,96806.95
2019-05-11T16:49:29.711Z,96816.84
2019-05-11T16:51:57.260Z,96818.80
2019-05-11T16:54:29.005Z,96834.22
2019-05-11T16:56:59.944Z,96837.36
2019-05-11T16:59:31.227Z,96842.23
2019-05-11T17:02:02.568Z,96845.86
2019-05-11T17:04:34.602Z,96827.88
2019-05-11T17:07:05.755Z,96869.96
2019-05-11T17:09:37.831Z,96847.63
2019-05-11T17:12:09.158Z,96848.08
2019-05-11T17:14:58.454Z,96845.28
2019-05-11T17:17:29.907Z,96848.80
2019-05-11T17:20:00.938Z,96849.14
2019-05-11T17:22:32.607Z,96860.87
2019-05-11T17:25:03.614Z,96867.55
2019-05-11T17:27:34.550Z,96872.27
2019-05-11T17:30:08.572Z,96884.27
2019-05-11T17:32:40.405Z,96892.28
2019-05-11T17:35:12.196Z,96905.11
2019-05-11T17:37:43.753Z,96914.56
2019-05-11T17:40:20.551Z,96923.38
2019-05-11T17:42:48.806Z,96938.08
2019-05-11T17:45:19.237Z,96931.91
2019-05-11T17:47:50.593Z,96931.13
2019-05-11T17:50:21.589Z,96935.25
2019-05-11T17:52:51.886Z,96939.75
2019-05-11T17:55:23.687Z,96938.29
2019-05-11T17:57:54.983Z,96929.11
2019-05-11T18:00:28.123Z,96931.34
2019-05-11T18:02:59.202Z,96920.59
2019-05-11T18:05:30.298Z,96926.17
2019-05-11T18:08:01.114Z,96934.14
2019-05-11T18:10:32.101Z,96947.00
2019-05-11T18:13:04.235Z,96945.13
2019-05-11T18:15:35.364Z,96951.80
2019-05-11T18:18:09.190Z,96951.02
2019-05-11T18:20:39.761Z,96958.66
2019-05-11T18:23:11.292Z,96976.24
2019-05-11T18:25:42.311Z,96961.52
2019-05-11T18:28:14.333Z,96967.09
2019-05-11T18:30:47.859Z,96976.05
2019-05-11T18:33:18.971Z,96977.41
2019-05-11T18:35:50.654Z,96975.34
2019-05-11T18:38:22.212Z,96987.73
2019-05-11T18:40:53.781Z,96986.55
2019-05-11T18:43:27.766Z,96995.64
2019-05-11T18:45:58.602Z,96987.63
2019-05-11T18:48:29.666Z,97007.12
2019-05-11T18:51:00.912Z,97016.72
2019-05-11T18:53:32.615Z,97015.40
2019-05-11T18:56:03.256Z,97022.65
2019-05-11T18:58:34.861Z,97030.28
2019-05-11T19:01:05.818Z,97041.47
2019-05-11T19:03:38.451Z,97052.64
2019-05-11T19:06:10.254Z,97051.59
2019-05-11T19:08:41.561Z,97067.11
2019-05-11T19:11:12.905Z,97068.42
2019-05-11T19:13:45.134Z,97079.72
2019-05-11T19:16:18.725Z,97101.04
2019-05-11T19:18:49.674Z,97118.03
2019-05-11T19:21:21.002Z,97119.58
2019-05-11T19:23:52.636Z,97130.88
2019-05-11T19:26:23.787Z,97139.76
2019-05-11T19:28:55.248Z,97145.05
2019-05-11T19:31:28.086Z,97153.20
2019-05-11T19:33:59.817Z,97148.22
2019-05-11T19:36:31.842Z,97154.36
2019-05-11T19:39:04.388Z,97151.94
2019-05-11T19:41:35.954Z,97163.14
2019-05-11T19:44:08.548Z,97170.31
2019-05-11T19:46:40.650Z,97180.11
2019-05-11T19:49:11.902Z,97178.56
2019-05-11T19:51:43.193Z,97183.17
2019-05-11T19:54:15.104Z,97190.50
2019-05-11T19:56:46.721Z,97192.23
2019-05-11T19:59:17.705Z,97200.39
2019-05-11T20:01:48.992Z,97199.62
2019-05-11T20:04:20.045Z,97201.93
2019-05-11T20:06:51.357Z,97206.08
2019-05-11T20:09:23.230Z,97211.16
2019-05-11T20:11:54.487Z,97208.35
2019-05-11T20:14:27.944Z,97212.52
2019-05-11T20:16:59.447Z,97215.61
2019-05-11T20:19:30.748Z,97219.11
2019-05-11T20:22:02.060Z,97227.31
2019-05-11T20:24:33.658Z,97223.66
2019-05-11T20:27:04.913Z,97222.24
2019-05-11T20:29:37.950Z,97230.14
2019-05-11T20:32:09.479Z,97240.84
2019-05-11T20:34:40.678Z,97244.05
2019-05-11T20:37:12.279Z,97252.47
2019-05-11T20:39:43.981Z,97250.02
2019-05-11T20:42:18.111Z,97258.01
2019-05-11T20:44:49.514Z,97265.28
2019-05-11T20:47:20.849Z,97264.83
2019-05-11T20:49:52.499Z,97272.51
2019-05-11T20:52:23.803Z,97281.36
2019-05-11T20:54:58.208Z,97286.58
2019-05-11T20:57:30.026Z,97286.58
2019-05-11T21:00:01.974Z,97291.91
2019-05-11T21:02:32.930Z,97290.44
2019-05-11T21:05:03.973Z,97303.28
2019-05-11T21:07:35.651Z,97307.17
2019-05-11T21:10:08.801Z,97301.91
2019-05-11T21:12:40.262Z,97306.36
2019-05-11T21:15:11.564Z,97308.78
2019-05-11T21:17:42.956Z,97302.54
2019-05-11T21:20:13.869Z,97309.61
2019-05-11T21:22:48.088Z,97314.95
2019-05-11T21:25:18.604Z,97323.02
2019-05-11T21:27:50.080Z,97326.33
2019-05-11T21:30:21.431Z,97326.48
2019-05-11T21:33:18.881Z,97318.88
2019-05-11T21:35:50.466Z,97326.27
2019-05-11T21:38:21.801Z,97327.84
2019-05-11T21:40:53.359Z,97320.84
2019-05-11T21:43:25.115Z,97324.72
2019-05-11T21:45:58.249Z,97329.05
2019-05-11T21:48:29.959Z,97323.75
2019-05-11T21:51:01.561Z,97334.61
2019-05-11T21:53:32.633Z,97343.75
2019-05-11T21:56:04.229Z,97347.41
2019-05-11T21:58:37.788Z,97343.34
2019-05-11T22:01:09.359Z,97352.77
2019-05-11T22:03:40.704Z,97361.03
2019-05-11T22:06:11.960Z,97358.56
2019-05-11T22:08:43.890Z,97363.99
2019-05-11T22:11:15.158Z,97360.73
2019-05-11T22:13:47.955Z,97366.33
2019-05-11T22:16:18.779Z,97364.86
2019-05-11T22:18:50.306Z,97366.25
2019-05-11T22:21:21.370Z,97371.14
2019-05-11T22:23:58.517Z,97374.86
2019-05-11T22:26:29.861Z,97372.28
2019-05-11T22:29:01.366Z,97382.22
2019-05-11T22:31:32.713Z,97384.09
2019-05-11T22:34:04.060Z,97390.57
2019-05-11T22:36:35.691Z,97398.84
2019-05-11T22:39:08.611Z,97398.95
2019-05-11T22:41:39.892Z,97393.80
2019-05-11T22:44:11.163Z,97404.33
2019-05-11T22:46:42.636Z,97402.48
2019-05-11T22:49:14.051Z,97405.64
2019-05-11T22:51:45.027Z,97407.16
2019-05-11T22:54:18.558Z,97400.73
2019-05-11T22:56:53.070Z,97409.41
2019-05-11T22:59:23.771Z,97408.23
2019-05-11T23:01:55.061Z,97409.20
2019-05-11T23:04:28.801Z,97407.19
2019-05-11T23:06:59.156Z,97412.73
2019-05-11T23:09:30.193Z,97412.03
2019-05-11T23:12:01.843Z,97417.59
2019-05-11T23:14:33.493Z,97419.27
2019-05-11T23:17:04.559Z,97418.13
2019-05-11T23:19:38.112Z,97415.31
2019-05-11T23:22:09.094Z,97411.80
2019-05-11T23:24:41.098Z,97416.98
2019-05-11T23:27:12.969Z,97417.23
2019-05-11T23:29:43.960Z,97421.86
2019-05-11T23:32:14.872Z,97419.74
2019-05-11T23:34:48.167Z,97421.00
2019-05-11T23:37:19.881Z,97427.80
2019-05-11T23:39:51.172Z,97426.48
2019-05-11T23:42:22.400Z,97426.17
2019-05-11T23:44:53.693Z,97429.94
2019-05-11T23:47:25.272Z,97434.69
2019-05-11T23:49:58.162Z,97439.37
2019-05-11T23:52:29.642Z,97440.22
2019-05-11T23:55:01.695Z,97441.53
2019-05-11T23:57:33.302Z,97447.79
